sensor_id;sensor_type;location;lat;lon;timestamp;P1;durP1;ratioP1;P2;durP2;ratioP2
25615;SDS011;13482;48.234;13.006;2023-09-19T00:00:04;1.33;;;0.32;;
25615;SDS011;13482;48.234;13.006;2023-09-19T00:02:58;2.00;;;0.47;;
25615;SDS011;13482;48.234;13.006;2023-09-19T00:05:35;0.60;;;0.30;;
25615;SDS011;13482;48.234;13.006;2023-09-19T00:08:19;0.65;;;0.30;;
25615;SDS011;13482;48.234;13.006;2023-09-19T00:11:05;1.48;;;0.50;;
25615;SDS011;13482;48.234;13.006;2023-09-19T00:13:41;0.57;;;0.40;;
25615;SDS011;13482;48.234;13.006;2023-09-19T00:16:19;1.88;;;0.50;;
25615;SDS011;13482;48.234;13.006;2023-09-19T00:18:52;1.55;;;0.55;;
25615;SDS011;13482;48.234;13.006;2023-09-19T00:21:22;0.52;;;0.30;;
25615;SDS011;13482;48.234;13.006;2023-09-19T00:23:51;1.13;;;0.40;;
25615;SDS011;13482;48.234;13.006;2023-09-19T00:26:24;0.98;;;0.50;;
25615;SDS011;13482;48.234;13.006;2023-09-19T00:29:03;2.40;;;0.43;;
25615;SDS011;13482;48.234;13.006;2023-09-19T00:31:34;0.98;;;0.30;;
25615;SDS011;13482;48.234;13.006;2023-09-19T00:34:09;0.95;;;0.40;;
25615;SDS011;13482;48.234;13.006;2023-09-19T00:36:40;1.25;;;0.50;;
25615;SDS011;13482;48.234;13.006;2023-09-19T00:39:12;0.75;;;0.38;;
25615;SDS011;13482;48.234;13.006;2023-09-19T00:41:45;1.20;;;0.32;;
25615;SDS011;13482;48.234;13.006;2023-09-19T00:47:01;1.10;;;0.40;;
25615;SDS011;13482;48.234;13.006;2023-09-19T00:49:32;0.73;;;0.32;;
25615;SDS011;13482;48.234;13.006;2023-09-19T00:52:22;0.77;;;0.40;;
25615;SDS011;13482;48.234;13.006;2023-09-19T00:54:55;0.88;;;0.38;;
25615;SDS011;13482;48.234;13.006;2023-09-19T00:57:29;2.17;;;0.30;;
25615;SDS011;13482;48.234;13.006;2023-09-19T01:00:01;1.65;;;0.43;;
25615;SDS011;13482;48.234;13.006;2023-09-19T01:02:37;1.00;;;0.40;;
25615;SDS011;13482;48.234;13.006;2023-09-19T01:05:09;0.80;;;0.47;;
25615;SDS011;13482;48.234;13.006;2023-09-19T01:07:41;1.13;;;0.47;;
25615;SDS011;13482;48.234;13.006;2023-09-19T01:10:14;0.70;;;0.40;;
25615;SDS011;13482;48.234;13.006;2023-09-19T01:13:15;1.08;;;0.50;;
25615;SDS011;13482;48.234;13.006;2023-09-19T01:16:26;1.00;;;0.40;;
25615;SDS011;13482;48.234;13.006;2023-09-19T01:19:56;1.60;;;0.43;;
25615;SDS011;13482;48.234;13.006;2023-09-19T01:23:03;1.50;;;0.50;;
25615;SDS011;13482;48.234;13.006;2023-09-19T01:29:23;0.90;;;0.30;;
25615;SDS011;13482;48.234;13.006;2023-09-19T01:32:17;0.60;;;0.38;;
25615;SDS011;13482;48.234;13.006;2023-09-19T01:34:54;1.10;;;0.73;;
25615;SDS011;13482;48.234;13.006;2023-09-19T01:37:31;1.25;;;0.40;;
25615;SDS011;13482;48.234;13.006;2023-09-19T01:40:07;1.42;;;0.60;;
25615;SDS011;13482;48.234;13.006;2023-09-19T01:52:04;0.85;;;0.45;;
25615;SDS011;13482;48.234;13.006;2023-09-19T01:55:03;1.30;;;0.50;;
25615;SDS011;13482;48.234;13.006;2023-09-19T02:01:33;0.68;;;0.43;;
25615;SDS011;13482;48.234;13.006;2023-09-19T02:04:07;0.65;;;0.38;;
25615;SDS011;13482;48.234;13.006;2023-09-19T02:06:43;0.60;;;0.40;;
25615;SDS011;13482;48.234;13.006;2023-09-19T02:09:19;6.57;;;0.50;;
25615;SDS011;13482;48.234;13.006;2023-09-19T02:11:48;0.80;;;0.50;;
25615;SDS011;13482;48.234;13.006;2023-09-19T02:14:20;0.80;;;0.50;;
25615;SDS011;13482;48.234;13.006;2023-09-19T02:17:02;1.40;;;0.50;;
25615;SDS011;13482;48.234;13.006;2023-09-19T02:19:39;0.85;;;0.47;;
25615;SDS011;13482;48.234;13.006;2023-09-19T02:22:10;1.08;;;0.45;;
25615;SDS011;13482;48.234;13.006;2023-09-19T02:24:39;1.00;;;0.50;;
25615;SDS011;13482;48.234;13.006;2023-09-19T02:27:12;1.17;;;0.40;;
25615;SDS011;13482;48.234;13.006;2023-09-19T02:29:55;0.77;;;0.45;;
25615;SDS011;13482;48.234;13.006;2023-09-19T02:32:26;1.30;;;0.50;;
25615;SDS011;13482;48.234;13.006;2023-09-19T02:35:02;1.20;;;0.70;;
25615;SDS011;13482;48.234;13.006;2023-09-19T02:37:35;1.75;;;0.50;;
25615;SDS011;13482;48.234;13.006;2023-09-19T02:40:06;1.55;;;0.47;;
25615;SDS011;13482;48.234;13.006;2023-09-19T02:42:52;0.32;;;0.30;;
25615;SDS011;13482;48.234;13.006;2023-09-19T02:45:27;0.45;;;0.40;;
25615;SDS011;13482;48.234;13.006;2023-09-19T02:47:58;0.80;;;0.47;;
25615;SDS011;13482;48.234;13.006;2023-09-19T02:50:29;1.50;;;0.63;;
25615;SDS011;13482;48.234;13.006;2023-09-19T02:53:00;1.60;;;0.50;;
25615;SDS011;13482;48.234;13.006;2023-09-19T02:55:29;0.90;;;0.52;;
25615;SDS011;13482;48.234;13.006;2023-09-19T02:58:01;1.23;;;0.70;;
25615;SDS011;13482;48.234;13.006;2023-09-19T03:00:36;1.30;;;0.60;;
25615;SDS011;13482;48.234;13.006;2023-09-19T03:03:13;1.25;;;0.65;;
25615;SDS011;13482;48.234;13.006;2023-09-19T03:05:49;0.70;;;0.50;;
25615;SDS011;13482;48.234;13.006;2023-09-19T03:08:22;2.13;;;0.50;;
25615;SDS011;13482;48.234;13.006;2023-09-19T03:10:55;1.23;;;0.68;;
25615;SDS011;13482;48.234;13.006;2023-09-19T03:13:27;1.83;;;0.60;;
25615;SDS011;13482;48.234;13.006;2023-09-19T03:18:35;0.75;;;0.40;;
25615;SDS011;13482;48.234;13.006;2023-09-19T03:21:13;0.65;;;0.40;;
25615;SDS011;13482;48.234;13.006;2023-09-19T03:23:49;1.00;;;0.50;;
25615;SDS011;13482;48.234;13.006;2023-09-19T03:26:20;1.88;;;0.52;;
25615;SDS011;13482;48.234;13.006;2023-09-19T03:28:50;1.33;;;0.68;;
25615;SDS011;13482;48.234;13.006;2023-09-19T03:31:21;0.85;;;0.45;;
25615;SDS011;13482;48.234;13.006;2023-09-19T03:36:38;0.90;;;0.50;;
25615;SDS011;13482;48.234;13.006;2023-09-19T03:39:11;1.67;;;0.40;;
25615;SDS011;13482;48.234;13.006;2023-09-19T03:41:46;1.25;;;0.50;;
25615;SDS011;13482;48.234;13.006;2023-09-19T03:44:17;1.02;;;0.60;;
25615;SDS011;13482;48.234;13.006;2023-09-19T03:46:58;0.90;;;0.50;;
25615;SDS011;13482;48.234;13.006;2023-09-19T03:49:30;1.38;;;0.60;;
25615;SDS011;13482;48.234;13.006;2023-09-19T03:52:02;1.23;;;0.65;;
25615;SDS011;13482;48.234;13.006;2023-09-19T03:54:35;0.73;;;0.40;;
25615;SDS011;13482;48.234;13.006;2023-09-19T03:57:06;1.00;;;0.50;;
25615;SDS011;13482;48.234;13.006;2023-09-19T03:59:40;1.17;;;0.50;;
25615;SDS011;13482;48.234;13.006;2023-09-19T04:02:14;0.90;;;0.55;;
25615;SDS011;13482;48.234;13.006;2023-09-19T04:05:04;1.08;;;0.60;;
25615;SDS011;13482;48.234;13.006;2023-09-19T04:07:36;1.20;;;0.70;;
25615;SDS011;13482;48.234;13.006;2023-09-19T04:10:05;1.13;;;0.73;;
25615;SDS011;13482;48.234;13.006;2023-09-19T04:12:52;1.75;;;0.60;;
25615;SDS011;13482;48.234;13.006;2023-09-19T04:15:27;1.52;;;0.73;;
25615;SDS011;13482;48.234;13.006;2023-09-19T04:17:59;1.00;;;0.50;;
25615;SDS011;13482;48.234;13.006;2023-09-19T04:20:34;1.55;;;0.50;;
25615;SDS011;13482;48.234;13.006;2023-09-19T04:23:04;1.50;;;0.70;;
25615;SDS011;13482;48.234;13.006;2023-09-19T04:25:41;1.20;;;0.60;;
25615;SDS011;13482;48.234;13.006;2023-09-19T04:28:13;1.33;;;0.60;;
25615;SDS011;13482;48.234;13.006;2023-09-19T04:30:44;1.27;;;0.70;;
25615;SDS011;13482;48.234;13.006;2023-09-19T04:33:14;0.60;;;0.40;;
25615;SDS011;13482;48.234;13.006;2023-09-19T04:35:49;1.30;;;0.60;;
25615;SDS011;13482;48.234;13.006;2023-09-19T04:38:18;1.25;;;0.60;;
25615;SDS011;13482;48.234;13.006;2023-09-19T04:40:46;1.25;;;0.60;;
25615;SDS011;13482;48.234;13.006;2023-09-19T04:43:14;1.23;;;0.60;;
25615;SDS011;13482;48.234;13.006;2023-09-19T04:45:44;1.20;;;0.50;;
25615;SDS011;13482;48.234;13.006;2023-09-19T04:48:13;1.23;;;0.60;;
25615;SDS011;13482;48.234;13.006;2023-09-19T04:50:42;2.30;;;0.55;;
25615;SDS011;13482;48.234;13.006;2023-09-19T04:53:11;1.17;;;0.40;;
25615;SDS011;13482;48.234;13.006;2023-09-19T04:55:39;0.77;;;0.40;;
25615;SDS011;13482;48.234;13.006;2023-09-19T04:58:06;0.88;;;0.47;;
25615;SDS011;13482;48.234;13.006;2023-09-19T05:00:34;1.20;;;0.57;;
25615;SDS011;13482;48.234;13.006;2023-09-19T05:03:01;1.58;;;0.60;;
25615;SDS011;13482;48.234;13.006;2023-09-19T05:05:31;0.50;;;0.40;;
25615;SDS011;13482;48.234;13.006;2023-09-19T05:07:58;0.60;;;0.43;;
25615;SDS011;13482;48.234;13.006;2023-09-19T05:10:32;0.63;;;0.40;;
25615;SDS011;13482;48.234;13.006;2023-09-19T05:13:00;1.50;;;0.70;;
25615;SDS011;13482;48.234;13.006;2023-09-19T05:15:27;1.52;;;0.82;;
25615;SDS011;13482;48.234;13.006;2023-09-19T05:17:54;1.42;;;0.88;;
25615;SDS011;13482;48.234;13.006;2023-09-19T05:20:24;1.60;;;0.80;;
25615;SDS011;13482;48.234;13.006;2023-09-19T05:23:05;1.98;;;0.75;;
25615;SDS011;13482;48.234;13.006;2023-09-19T05:25:36;1.87;;;0.70;;
25615;SDS011;13482;48.234;13.006;2023-09-19T05:28:07;0.98;;;0.60;;
25615;SDS011;13482;48.234;13.006;2023-09-19T05:30:38;1.48;;;0.80;;
25615;SDS011;13482;48.234;13.006;2023-09-19T05:33:06;1.10;;;0.70;;
25615;SDS011;13482;48.234;13.006;2023-09-19T05:35:34;1.27;;;0.80;;
25615;SDS011;13482;48.234;13.006;2023-09-19T05:38:08;1.30;;;0.68;;
25615;SDS011;13482;48.234;13.006;2023-09-19T05:40:36;1.35;;;0.55;;
25615;SDS011;13482;48.234;13.006;2023-09-19T05:43:05;2.28;;;0.60;;
25615;SDS011;13482;48.234;13.006;2023-09-19T05:45:33;1.25;;;0.50;;
25615;SDS011;13482;48.234;13.006;2023-09-19T05:48:12;1.30;;;0.70;;
25615;SDS011;13482;48.234;13.006;2023-09-19T05:50:43;1.00;;;0.40;;
25615;SDS011;13482;48.234;13.006;2023-09-19T05:53:13;1.52;;;0.70;;
25615;SDS011;13482;48.234;13.006;2023-09-19T05:55:41;1.10;;;0.50;;
25615;SDS011;13482;48.234;13.006;2023-09-19T05:58:10;1.50;;;0.60;;
25615;SDS011;13482;48.234;13.006;2023-09-19T06:00:40;1.35;;;0.70;;
25615;SDS011;13482;48.234;13.006;2023-09-19T06:03:11;1.10;;;0.55;;
25615;SDS011;13482;48.234;13.006;2023-09-19T06:05:38;1.67;;;0.60;;
25615;SDS011;13482;48.234;13.006;2023-09-19T06:08:07;1.30;;;0.50;;
25615;SDS011;13482;48.234;13.006;2023-09-19T06:10:36;1.40;;;0.70;;
25615;SDS011;13482;48.234;13.006;2023-09-19T06:13:04;1.45;;;0.45;;
25615;SDS011;13482;48.234;13.006;2023-09-19T06:15:33;0.63;;;0.40;;
25615;SDS011;13482;48.234;13.006;2023-09-19T06:18:02;1.13;;;0.55;;
25615;SDS011;13482;48.234;13.006;2023-09-19T06:20:32;1.02;;;0.70;;
25615;SDS011;13482;48.234;13.006;2023-09-19T06:23:00;1.02;;;0.52;;
25615;SDS011;13482;48.234;13.006;2023-09-19T06:25:29;0.80;;;0.45;;
25615;SDS011;13482;48.234;13.006;2023-09-19T06:27:57;1.35;;;0.60;;
25615;SDS011;13482;48.234;13.006;2023-09-19T06:30:24;1.13;;;0.60;;
25615;SDS011;13482;48.234;13.006;2023-09-19T06:32:56;1.25;;;0.80;;
25615;SDS011;13482;48.234;13.006;2023-09-19T06:35:25;1.23;;;0.60;;
25615;SDS011;13482;48.234;13.006;2023-09-19T06:37:53;1.27;;;0.50;;
25615;SDS011;13482;48.234;13.006;2023-09-19T06:40:25;1.70;;;0.52;;
25615;SDS011;13482;48.234;13.006;2023-09-19T06:42:55;0.80;;;0.50;;
25615;SDS011;13482;48.234;13.006;2023-09-19T06:45:23;0.82;;;0.50;;
25615;SDS011;13482;48.234;13.006;2023-09-19T06:47:54;0.60;;;0.40;;
25615;SDS011;13482;48.234;13.006;2023-09-19T06:50:25;1.10;;;0.60;;
25615;SDS011;13482;48.234;13.006;2023-09-19T06:52:54;1.23;;;0.50;;
25615;SDS011;13482;48.234;13.006;2023-09-19T06:55:25;1.30;;;0.60;;
25615;SDS011;13482;48.234;13.006;2023-09-19T06:57:59;1.20;;;0.52;;
25615;SDS011;13482;48.234;13.006;2023-09-19T07:00:26;1.27;;;0.70;;
25615;SDS011;13482;48.234;13.006;2023-09-19T07:02:55;0.80;;;0.63;;
25615;SDS011;13482;48.234;13.006;2023-09-19T07:05:31;1.17;;;0.70;;
25615;SDS011;13482;48.234;13.006;2023-09-19T07:08:06;1.50;;;0.50;;
25615;SDS011;13482;48.234;13.006;2023-09-19T07:10:37;0.73;;;0.45;;
25615;SDS011;13482;48.234;13.006;2023-09-19T07:13:15;2.63;;;0.70;;
25615;SDS011;13482;48.234;13.006;2023-09-19T07:15:44;1.45;;;0.60;;
25615;SDS011;13482;48.234;13.006;2023-09-19T07:18:17;2.22;;;0.57;;
25615;SDS011;13482;48.234;13.006;2023-09-19T07:20:45;1.17;;;0.60;;
25615;SDS011;13482;48.234;13.006;2023-09-19T07:23:17;1.55;;;0.70;;
25615;SDS011;13482;48.234;13.006;2023-09-19T07:25:48;1.20;;;0.65;;
25615;SDS011;13482;48.234;13.006;2023-09-19T07:28:17;1.60;;;0.95;;
25615;SDS011;13482;48.234;13.006;2023-09-19T07:30:45;1.00;;;0.80;;
25615;SDS011;13482;48.234;13.006;2023-09-19T07:33:12;1.00;;;0.63;;
25615;SDS011;13482;48.234;13.006;2023-09-19T07:35:40;1.35;;;0.70;;
25615;SDS011;13482;48.234;13.006;2023-09-19T07:38:13;2.00;;;0.60;;
25615;SDS011;13482;48.234;13.006;2023-09-19T07:40:41;1.50;;;0.90;;
25615;SDS011;13482;48.234;13.006;2023-09-19T07:43:08;1.60;;;0.80;;
25615;SDS011;13482;48.234;13.006;2023-09-19T07:45:36;1.10;;;0.63;;
25615;SDS011;13482;48.234;13.006;2023-09-19T07:48:03;1.10;;;0.57;;
25615;SDS011;13482;48.234;13.006;2023-09-19T07:50:33;0.77;;;0.50;;
25615;SDS011;13482;48.234;13.006;2023-09-19T07:53:04;0.63;;;0.45;;
25615;SDS011;13482;48.234;13.006;2023-09-19T07:55:31;1.58;;;0.70;;
25615;SDS011;13482;48.234;13.006;2023-09-19T07:58:00;1.35;;;0.60;;
25615;SDS011;13482;48.234;13.006;2023-09-19T08:00:31;2.22;;;0.68;;
25615;SDS011;13482;48.234;13.006;2023-09-19T08:03:01;0.98;;;0.57;;
25615;SDS011;13482;48.234;13.006;2023-09-19T08:05:41;1.02;;;0.60;;
25615;SDS011;13482;48.234;13.006;2023-09-19T08:08:12;0.93;;;0.60;;
25615;SDS011;13482;48.234;13.006;2023-09-19T08:10:42;1.35;;;0.60;;
25615;SDS011;13482;48.234;13.006;2023-09-19T08:13:13;1.35;;;0.55;;
25615;SDS011;13482;48.234;13.006;2023-09-19T08:15:44;0.88;;;0.50;;
25615;SDS011;13482;48.234;13.006;2023-09-19T08:18:13;1.20;;;0.55;;
25615;SDS011;13482;48.234;13.006;2023-09-19T08:20:43;0.70;;;0.40;;
25615;SDS011;13482;48.234;13.006;2023-09-19T08:23:19;1.25;;;0.60;;
25615;SDS011;13482;48.234;13.006;2023-09-19T08:25:47;2.15;;;0.55;;
25615;SDS011;13482;48.234;13.006;2023-09-19T08:28:15;0.73;;;0.40;;
25615;SDS011;13482;48.234;13.006;2023-09-19T08:30:49;1.85;;;1.13;;
25615;SDS011;13482;48.234;13.006;2023-09-19T08:33:18;2.40;;;0.90;;
25615;SDS011;13482;48.234;13.006;2023-09-19T08:35:46;1.42;;;0.90;;
25615;SDS011;13482;48.234;13.006;2023-09-19T08:38:13;1.42;;;0.70;;
25615;SDS011;13482;48.234;13.006;2023-09-19T08:40:41;1.25;;;0.57;;
25615;SDS011;13482;48.234;13.006;2023-09-19T08:43:10;1.58;;;0.65;;
25615;SDS011;13482;48.234;13.006;2023-09-19T08:45:37;0.95;;;0.40;;
25615;SDS011;13482;48.234;13.006;2023-09-19T08:48:16;1.02;;;0.50;;
25615;SDS011;13482;48.234;13.006;2023-09-19T08:50:52;0.85;;;0.40;;
25615;SDS011;13482;48.234;13.006;2023-09-19T08:53:42;0.82;;;0.40;;
25615;SDS011;13482;48.234;13.006;2023-09-19T08:56:12;0.52;;;0.32;;
25615;SDS011;13482;48.234;13.006;2023-09-19T08:59:06;1.65;;;0.30;;
25615;SDS011;13482;48.234;13.006;2023-09-19T09:04:06;0.70;;;0.38;;
25615;SDS011;13482;48.234;13.006;2023-09-19T09:06:35;0.90;;;0.38;;
25615;SDS011;13482;48.234;13.006;2023-09-19T09:09:06;0.52;;;0.30;;
25615;SDS011;13482;48.234;13.006;2023-09-19T09:11:35;1.30;;;0.50;;
25615;SDS011;13482;48.234;13.006;2023-09-19T09:14:06;0.60;;;0.40;;
25615;SDS011;13482;48.234;13.006;2023-09-19T09:16:34;0.77;;;0.40;;
25615;SDS011;13482;48.234;13.006;2023-09-19T09:19:02;2.47;;;0.52;;
25615;SDS011;13482;48.234;13.006;2023-09-19T09:21:31;0.85;;;0.40;;
25615;SDS011;13482;48.234;13.006;2023-09-19T09:27:04;1.20;;;0.63;;
25615;SDS011;13482;48.234;13.006;2023-09-19T09:32:28;1.10;;;0.63;;
25615;SDS011;13482;48.234;13.006;2023-09-19T09:35:01;0.90;;;0.50;;
25615;SDS011;13482;48.234;13.006;2023-09-19T09:37:37;1.33;;;0.50;;
25615;SDS011;13482;48.234;13.006;2023-09-19T09:40:05;1.60;;;0.50;;
25615;SDS011;13482;48.234;13.006;2023-09-19T09:42:43;0.68;;;0.45;;
25615;SDS011;13482;48.234;13.006;2023-09-19T09:45:14;1.10;;;0.57;;
25615;SDS011;13482;48.234;13.006;2023-09-19T09:48:02;1.10;;;0.40;;
25615;SDS011;13482;48.234;13.006;2023-09-19T09:50:48;0.95;;;0.60;;
25615;SDS011;13482;48.234;13.006;2023-09-19T09:56:09;1.02;;;0.50;;
25615;SDS011;13482;48.234;13.006;2023-09-19T09:58:59;0.77;;;0.38;;
25615;SDS011;13482;48.234;13.006;2023-09-19T10:01:26;1.00;;;0.50;;
25615;SDS011;13482;48.234;13.006;2023-09-19T10:03:58;1.02;;;0.60;;
25615;SDS011;13482;48.234;13.006;2023-09-19T10:06:40;2.05;;;0.40;;
25615;SDS011;13482;48.234;13.006;2023-09-19T10:09:14;0.70;;;0.43;;
25615;SDS011;13482;48.234;13.006;2023-09-19T10:11:47;0.70;;;0.47;;
25615;SDS011;13482;48.234;13.006;2023-09-19T10:14:33;0.60;;;0.40;;
25615;SDS011;13482;48.234;13.006;2023-09-19T10:17:05;0.80;;;0.40;;
25615;SDS011;13482;48.234;13.006;2023-09-19T10:19:37;0.50;;;0.30;;
25615;SDS011;13482;48.234;13.006;2023-09-19T10:22:24;0.70;;;0.40;;
25615;SDS011;13482;48.234;13.006;2023-09-19T10:24:57;0.77;;;0.30;;
25615;SDS011;13482;48.234;13.006;2023-09-19T10:27:29;1.20;;;0.50;;
25615;SDS011;13482;48.234;13.006;2023-09-19T10:30:06;0.70;;;0.30;;
25615;SDS011;13482;48.234;13.006;2023-09-19T10:32:38;1.05;;;0.60;;
25615;SDS011;13482;48.234;13.006;2023-09-19T10:35:08;0.90;;;0.50;;
25615;SDS011;13482;48.234;13.006;2023-09-19T10:37:39;0.55;;;0.38;;
25615;SDS011;13482;48.234;13.006;2023-09-19T10:40:10;1.10;;;0.50;;
25615;SDS011;13482;48.234;13.006;2023-09-19T10:42:39;1.05;;;0.65;;
25615;SDS011;13482;48.234;13.006;2023-09-19T10:45:08;0.90;;;0.50;;
25615;SDS011;13482;48.234;13.006;2023-09-19T10:47:40;2.45;;;0.50;;
25615;SDS011;13482;48.234;13.006;2023-09-19T10:50:07;1.67;;;0.40;;
25615;SDS011;13482;48.234;13.006;2023-09-19T10:52:38;1.85;;;0.40;;
25615;SDS011;13482;48.234;13.006;2023-09-19T10:55:08;0.80;;;0.30;;
25615;SDS011;13482;48.234;13.006;2023-09-19T10:57:45;0.73;;;0.40;;
25615;SDS011;13482;48.234;13.006;2023-09-19T11:00:15;1.20;;;0.40;;
25615;SDS011;13482;48.234;13.006;2023-09-19T11:06:04;0.30;;;0.20;;
25615;SDS011;13482;48.234;13.006;2023-09-19T11:11:43;1.08;;;0.40;;
25615;SDS011;13482;48.234;13.006;2023-09-19T11:30:34;1.02;;;0.50;;
25615;SDS011;13482;48.234;13.006;2023-09-19T11:43:53;0.45;;;0.30;;
25615;SDS011;13482;48.234;13.006;2023-09-19T11:49:25;0.40;;;0.30;;
25615;SDS011;13482;48.234;13.006;2023-09-19T11:52:04;0.43;;;0.20;;
25615;SDS011;13482;48.234;13.006;2023-09-19T11:54:33;1.15;;;0.30;;
25615;SDS011;13482;48.234;13.006;2023-09-19T11:57:08;0.55;;;0.28;;
25615;SDS011;13482;48.234;13.006;2023-09-19T11:59:38;0.75;;;0.30;;
25615;SDS011;13482;48.234;13.006;2023-09-19T12:02:06;0.45;;;0.20;;
25615;SDS011;13482;48.234;13.006;2023-09-19T12:07:15;1.45;;;0.38;;
25615;SDS011;13482;48.234;13.006;2023-09-19T12:14:50;0.70;;;0.30;;
25615;SDS011;13482;48.234;13.006;2023-09-19T12:17:18;0.60;;;0.30;;
25615;SDS011;13482;48.234;13.006;2023-09-19T12:19:52;0.40;;;0.20;;
25615;SDS011;13482;48.234;13.006;2023-09-19T12:22:23;0.90;;;0.40;;
25615;SDS011;13482;48.234;13.006;2023-09-19T12:24:51;0.70;;;0.28;;
25615;SDS011;13482;48.234;13.006;2023-09-19T12:27:21;1.15;;;0.40;;
25615;SDS011;13482;48.234;13.006;2023-09-19T12:29:49;1.23;;;0.40;;
25615;SDS011;13482;48.234;13.006;2023-09-19T12:32:17;1.00;;;0.40;;
25615;SDS011;13482;48.234;13.006;2023-09-19T12:34:51;0.63;;;0.40;;
25615;SDS011;13482;48.234;13.006;2023-09-19T12:37:21;1.20;;;0.40;;
25615;SDS011;13482;48.234;13.006;2023-09-19T12:39:50;1.40;;;0.52;;
25615;SDS011;13482;48.234;13.006;2023-09-19T12:44:51;1.38;;;0.40;;
25615;SDS011;13482;48.234;13.006;2023-09-19T12:47:23;0.50;;;0.32;;
25615;SDS011;13482;48.234;13.006;2023-09-19T12:52:52;0.40;;;0.30;;
25615;SDS011;13482;48.234;13.006;2023-09-19T12:55:24;0.50;;;0.30;;
25615;SDS011;13482;48.234;13.006;2023-09-19T12:58:00;1.40;;;0.38;;
25615;SDS011;13482;48.234;13.006;2023-09-19T13:00:45;1.13;;;0.47;;
25615;SDS011;13482;48.234;13.006;2023-09-19T13:06:14;0.50;;;0.20;;
25615;SDS011;13482;48.234;13.006;2023-09-19T13:08:43;1.08;;;0.20;;
25615;SDS011;13482;48.234;13.006;2023-09-19T13:11:16;1.33;;;0.43;;
25615;SDS011;13482;48.234;13.006;2023-09-19T13:13:48;1.52;;;0.32;;
25615;SDS011;13482;48.234;13.006;2023-09-19T13:16:54;0.40;;;0.20;;
25615;SDS011;13482;48.234;13.006;2023-09-19T13:19:47;0.38;;;0.20;;
25615;SDS011;13482;48.234;13.006;2023-09-19T13:25:10;0.60;;;0.22;;
25615;SDS011;13482;48.234;13.006;2023-09-19T13:27:42;0.40;;;0.20;;
25615;SDS011;13482;48.234;13.006;2023-09-19T13:30:23;0.50;;;0.22;;
25615;SDS011;13482;48.234;13.006;2023-09-19T13:33:10;1.55;;;0.30;;
25615;SDS011;13482;48.234;13.006;2023-09-19T13:35:40;0.93;;;0.20;;
25615;SDS011;13482;48.234;13.006;2023-09-19T13:38:08;0.52;;;0.30;;
25615;SDS011;13482;48.234;13.006;2023-09-19T13:40:36;0.40;;;0.22;;
25615;SDS011;13482;48.234;13.006;2023-09-19T13:43:08;0.30;;;0.20;;
25615;SDS011;13482;48.234;13.006;2023-09-19T13:45:38;0.55;;;0.20;;
25615;SDS011;13482;48.234;13.006;2023-09-19T13:48:09;1.00;;;0.30;;
25615;SDS011;13482;48.234;13.006;2023-09-19T13:50:40;0.40;;;0.10;;
25615;SDS011;13482;48.234;13.006;2023-09-19T13:53:10;0.67;;;0.30;;
25615;SDS011;13482;48.234;13.006;2023-09-19T13:55:38;0.22;;;0.20;;
25615;SDS011;13482;48.234;13.006;2023-09-19T13:58:07;0.65;;;0.22;;
25615;SDS011;13482;48.234;13.006;2023-09-19T14:00:37;0.30;;;0.20;;
25615;SDS011;13482;48.234;13.006;2023-09-19T14:03:05;0.73;;;0.40;;
25615;SDS011;13482;48.234;13.006;2023-09-19T14:05:34;0.98;;;0.30;;
25615;SDS011;13482;48.234;13.006;2023-09-19T14:08:01;1.05;;;0.40;;
25615;SDS011;13482;48.234;13.006;2023-09-19T14:10:30;0.40;;;0.28;;
25615;SDS011;13482;48.234;13.006;2023-09-19T14:12:58;0.93;;;0.30;;
25615;SDS011;13482;48.234;13.006;2023-09-19T14:15:29;0.93;;;0.30;;
25615;SDS011;13482;48.234;13.006;2023-09-19T14:17:57;0.68;;;0.30;;
25615;SDS011;13482;48.234;13.006;2023-09-19T14:20:27;0.70;;;0.40;;
25615;SDS011;13482;48.234;13.006;2023-09-19T14:22:57;0.50;;;0.30;;
25615;SDS011;13482;48.234;13.006;2023-09-19T14:25:28;1.90;;;0.38;;
25615;SDS011;13482;48.234;13.006;2023-09-19T14:27:57;1.13;;;0.40;;
25615;SDS011;13482;48.234;13.006;2023-09-19T14:30:24;0.65;;;0.40;;
25615;SDS011;13482;48.234;13.006;2023-09-19T14:32:51;0.63;;;0.30;;
25615;SDS011;13482;48.234;13.006;2023-09-19T14:35:19;0.40;;;0.30;;
25615;SDS011;13482;48.234;13.006;2023-09-19T14:37:49;0.52;;;0.30;;
25615;SDS011;13482;48.234;13.006;2023-09-19T14:40:17;0.40;;;0.30;;
25615;SDS011;13482;48.234;13.006;2023-09-19T14:42:44;0.22;;;0.20;;
25615;SDS011;13482;48.234;13.006;2023-09-19T14:45:15;0.90;;;0.38;;
25615;SDS011;13482;48.234;13.006;2023-09-19T14:47:48;0.60;;;0.30;;
25615;SDS011;13482;48.234;13.006;2023-09-19T14:50:22;0.73;;;0.30;;
25615;SDS011;13482;48.234;13.006;2023-09-19T14:52:50;0.50;;;0.30;;
25615;SDS011;13482;48.234;13.006;2023-09-19T14:55:18;1.30;;;0.30;;
25615;SDS011;13482;48.234;13.006;2023-09-19T14:57:48;0.30;;;0.30;;
25615;SDS011;13482;48.234;13.006;2023-09-19T15:00:18;2.00;;;0.20;;
25615;SDS011;13482;48.234;13.006;2023-09-19T15:02:47;0.55;;;0.30;;
25615;SDS011;13482;48.234;13.006;2023-09-19T15:05:17;0.40;;;0.20;;
25615;SDS011;13482;48.234;13.006;2023-09-19T15:07:46;0.70;;;0.30;;
25615;SDS011;13482;48.234;13.006;2023-09-19T15:10:14;0.68;;;0.30;;
25615;SDS011;13482;48.234;13.006;2023-09-19T15:12:42;0.43;;;0.20;;
25615;SDS011;13482;48.234;13.006;2023-09-19T15:15:10;0.60;;;0.30;;
25615;SDS011;13482;48.234;13.006;2023-09-19T15:17:39;1.55;;;0.32;;
25615;SDS011;13482;48.234;13.006;2023-09-19T15:20:07;0.65;;;0.30;;
25615;SDS011;13482;48.234;13.006;2023-09-19T15:22:35;1.00;;;0.50;;
25615;SDS011;13482;48.234;13.006;2023-09-19T15:25:03;0.60;;;0.38;;
25615;SDS011;13482;48.234;13.006;2023-09-19T15:27:31;0.35;;;0.28;;
25615;SDS011;13482;48.234;13.006;2023-09-19T15:29:59;0.50;;;0.30;;
25615;SDS011;13482;48.234;13.006;2023-09-19T15:32:29;0.50;;;0.20;;
25615;SDS011;13482;48.234;13.006;2023-09-19T15:34:58;1.85;;;0.30;;
25615;SDS011;13482;48.234;13.006;2023-09-19T15:37:28;0.73;;;0.30;;
25615;SDS011;13482;48.234;13.006;2023-09-19T15:39:56;0.52;;;0.28;;
25615;SDS011;13482;48.234;13.006;2023-09-19T15:42:24;0.45;;;0.30;;
25615;SDS011;13482;48.234;13.006;2023-09-19T15:44:52;0.43;;;0.13;;
25615;SDS011;13482;48.234;13.006;2023-09-19T15:47:21;1.10;;;0.28;;
25615;SDS011;13482;48.234;13.006;2023-09-19T15:49:50;0.50;;;0.22;;
25615;SDS011;13482;48.234;13.006;2023-09-19T15:52:19;0.38;;;0.30;;
25615;SDS011;13482;48.234;13.006;2023-09-19T15:54:46;1.60;;;0.40;;
25615;SDS011;13482;48.234;13.006;2023-09-19T15:57:14;0.50;;;0.30;;
25615;SDS011;13482;48.234;13.006;2023-09-19T15:59:45;0.88;;;0.30;;
25615;SDS011;13482;48.234;13.006;2023-09-19T16:02:13;0.88;;;0.63;;
25615;SDS011;13482;48.234;13.006;2023-09-19T16:04:41;1.15;;;0.65;;
25615;SDS011;13482;48.234;13.006;2023-09-19T16:07:10;1.88;;;0.43;;
25615;SDS011;13482;48.234;13.006;2023-09-19T16:09:38;0.38;;;0.22;;
25615;SDS011;13482;48.234;13.006;2023-09-19T16:12:05;0.77;;;0.30;;
25615;SDS011;13482;48.234;13.006;2023-09-19T16:14:33;0.80;;;0.40;;
25615;SDS011;13482;48.234;13.006;2023-09-19T16:17:00;0.57;;;0.40;;
25615;SDS011;13482;48.234;13.006;2023-09-19T16:19:30;0.20;;;0.20;;
25615;SDS011;13482;48.234;13.006;2023-09-19T16:21:58;0.50;;;0.30;;
25615;SDS011;13482;48.234;13.006;2023-09-19T16:24:26;0.20;;;0.20;;
25615;SDS011;13482;48.234;13.006;2023-09-19T16:26:53;0.35;;;0.20;;
25615;SDS011;13482;48.234;13.006;2023-09-19T16:29:20;0.60;;;0.20;;
25615;SDS011;13482;48.234;13.006;2023-09-19T16:31:51;0.73;;;0.40;;
25615;SDS011;13482;48.234;13.006;2023-09-19T16:34:19;0.57;;;0.30;;